This is the latest recevied weather packets stored in our database for station/object AA7VG. If no packets are shown the sender has not sent any weather packets the latest 10 day(s).
| Time | Temp. | Humidity | Pressure | Rain* | Wind** | Luminosity | Snow |
|---|---|---|---|---|---|---|---|
| 1777330691 | 7.78° C | 38% | 1012.1 hPa | 0 mm | - | - | - |
| 1777330389 | 8.33° C | 38% | 1012 hPa | 0 mm | - | - | - |
| 1777330087 | 8.89° C | 36% | 1012.1 hPa | 0 mm | - | - | - |
| 1777329786 | 8.33° C | 37% | 1011.9 hPa | 0 mm | - | - | - |
| 1777329484 | 8.33° C | 38% | 1012 hPa | 0 mm | - | - | - |
| 1777329181 | 8.89° C | 38% | 1012.1 hPa | 0 mm | - | - | - |
| 1777328878 | 8.89° C | 38% | 1012.1 hPa | 0 mm | - | - | - |
| 1777328576 | 8.89° C | 38% | 1012.2 hPa | 0 mm | - | - | - |
| 1777328274 | 8.33° C | 39% | 1012.3 hPa | 0 mm | - | - | - |
| 1777327972 | 8.33° C | 38% | 1012.1 hPa | 0 mm | - | - | - |
| 1777327670 | 7.78° C | 41% | 1012.5 hPa | 0 mm | - | - | - |
| 1777327366 | 6.67° C | 43% | 1012.2 hPa | 0 mm | - | - | - |
| 1777327064 | 6.67° C | 44% | 1012.2 hPa | 0 mm | - | - | - |
| 1777326761 | 6.11° C | 44% | 1012.3 hPa | 0 mm | - | - | - |
| 1777326458 | 6.67° C | 45% | 1012.7 hPa | 0 mm | - | - | - |
| 1777326156 | 6.67° C | 44% | 1012.7 hPa | 0 mm | - | - | - |
| 1777325854 | 7.22° C | 43% | 1012.8 hPa | 0 mm | - | - | - |
| 1777325552 | 7.22° C | 43% | 1012.7 hPa | 0 mm | - | - | - |
| 1777325249 | 7.22° C | 44% | 1012.9 hPa | 0 mm | - | - | - |
| 1777324946 | 7.78° C | 43% | 1012.7 hPa | 0 mm | - | - | - |
| 1777324643 | 7.22° C | 42% | 1012.8 hPa | 0 mm | - | - | - |
| 1777324341 | 7.78° C | 41% | 1012.9 hPa | 0 mm | - | - | - |
| 1777324038 | 8.33° C | 39% | 1012.8 hPa | 0 mm | - | - | - |
| 1777323735 | 7.22° C | 42% | 1012.9 hPa | 0 mm | - | - | - |
| 1777323432 | 7.22° C | 43% | 1012.9 hPa | 0 mm | - | - | - |
* Rain latest hour (hover to see other rain measurements)
** Current wind speed in m/s (hover to see current wind gust speed)